M/V Tuna — XUGC9 — position and weather

sailwx.info

Track history (hours):
 
Tides and Currents Weather Stations Pressure Air Temp Water Temp Dewpoint Dewpoint Depression Visibility Wind Speed Wind Dir Waves Ship Positions

M/V Tuna

Last reported at 2016-Jun-29 15:31 UTC. Time now 2016-Jul-01 17:15 UTC.
Position N 46°16' E 030°44'.

Length 114 m; draft 2.4 m.

Type: Cargo ship. MMSI: 514778000.

Date/timePositionNaut miles runAvg speedWind from/ knotsBaromVisibWave heightAir tempDewpointWater temp
2016-Jun-29 15:31N 46°16' E 030°44'0 0.0
2016-Jun-29 14:31N 46°16' E 030°44'0 0.0
2016-Jun-29 13:31N 46°16' E 030°44'0 0.0
2016-Jun-29 12:31N 46°16' E 030°44'0 0.0
2016-Jun-29 11:31N 46°16' E 030°44'0 0.1
2016-Jun-29 10:33N 46°16' E 030°44'0 0.0
2016-Jun-29 09:33N 46°16' E 030°44'0 0.0
2016-Jun-29 08:33N 46°16' E 030°44'0 0.0
2016-Jun-29 07:33N 46°16' E 030°44'0 0.0
2016-Jun-29 06:33N 46°16' E 030°44'0 0.0
2016-Jun-29 05:33N 46°16' E 030°44'4 3.7
2016-Jun-29 04:33N 46°13' E 030°43'5 4.8
2016-Jun-29 03:33N 46°09' E 030°38'  
2016-Jun-23 11:06N 40°45' E 029°32'4 0.3
2016-Jun-22 21:33N 40°45' E 029°27'6 5.8
2016-Jun-22 20:34N 40°43' E 029°20'6 6.3
2016-Jun-22 19:34N 40°46' E 029°12'6 6.1
2016-Jun-22 18:31N 40°49' E 029°05'6 6.2
2016-Jun-22 17:33N 40°52' E 028°58'7 1.3
2016-Jun-22 12:11N 40°59' E 028°59'  
Track history (hours):
 
Tides and Currents Weather Stations Pressure Air Temp Water Temp Dewpoint Dewpoint Depression Visibility Wind Speed Wind Dir Waves Ship Positions

M/V Tuna

Last reported at 2016-Jun-29 15:31 UTC. Time now 2016-Jul-01 17:15 UTC.
Position N 46°16' E 030°44'.

Length 114 m; draft 2.4 m.

Type: Cargo ship. MMSI: 514778000.

Date/timePositionNaut miles runAvg speedWind from/ knotsBaromVisibWave heightAir tempDewpointWater temp
2016-Jun-29 15:31N 46°16' E 030°44'0 0.0
2016-Jun-29 14:31N 46°16' E 030°44'0 0.0
2016-Jun-29 13:31N 46°16' E 030°44'0 0.0
2016-Jun-29 12:31N 46°16' E 030°44'0 0.0
2016-Jun-29 11:31N 46°16' E 030°44'0 0.1
2016-Jun-29 10:33N 46°16' E 030°44'0 0.0
2016-Jun-29 09:33N 46°16' E 030°44'0 0.0
2016-Jun-29 08:33N 46°16' E 030°44'0 0.0
2016-Jun-29 07:33N 46°16' E 030°44'0 0.0
2016-Jun-29 06:33N 46°16' E 030°44'0 0.0
2016-Jun-29 05:33N 46°16' E 030°44'4 3.7
2016-Jun-29 04:33N 46°13' E 030°43'5 4.8
2016-Jun-29 03:33N 46°09' E 030°38'  
2016-Jun-23 11:06N 40°45' E 029°32'4 0.3
2016-Jun-22 21:33N 40°45' E 029°27'6 5.8
2016-Jun-22 20:34N 40°43' E 029°20'6 6.3
2016-Jun-22 19:34N 40°46' E 029°12'6 6.1
2016-Jun-22 18:31N 40°49' E 029°05'6 6.2
2016-Jun-22 17:33N 40°52' E 028°58'7 1.3
2016-Jun-22 12:11N 40°59' E 028°59'  

Dump ship's entire track history